M/V Crosby Hustler — WDA3941 — position and weather

sailwx.info

Track history (hours):
 
Tides and Currents Weather Stations Pressure Air Temp Water Temp Dewpoint Dewpoint Depression Visibility Wind Speed Wind Dir Waves Ship Positions

M/V Crosby Hustler

Owner: CROSBY INLAND MARINE LLC, GOLDEN MEADOW, LA. More information available from US FCC via Universal Licensing System and Coast Guard Vessel Documentation Center.

Last reported at 2014-Nov-25 16:21 UTC. Time now 2014-Nov-25 20:50 UTC.
Position N 29°43' W 095°14'.

Length 18 m; draft 9 m.

Type: Tug. MMSI: 366804030.

Date/timePositionNaut miles runAvg speedWind from/ knotsBaromVisibWave heightAir tempDewpointWater temp
2014-Nov-25 16:21N 29°43' W 095°14'2 3.1
2014-Nov-25 15:33N 29°45' W 095°12'1 1.0
2014-Nov-25 14:33N 29°45' W 095°11'5 4.5
2014-Nov-25 13:33N 29°45' W 095°06'0 0.1
2014-Nov-25 08:26N 29°45' W 095°06'7 1.8
2014-Nov-25 04:17N 29°44' W 095°14'3 4.4
2014-Nov-25 03:33N 29°45' W 095°10'4 4.4
2014-Nov-25 02:33N 29°46' W 095°05'0 0.2
2014-Nov-25 01:26N 29°46' W 095°06'8 2.7
2014-Nov-24 22:20N 29°43' W 095°15'0 0.0
2014-Nov-24 15:26N 29°43' W 095°15'0 0.0
2014-Nov-24 14:23N 29°43' W 095°15'2 0.8
2014-Nov-24 11:07N 29°44' W 095°12'2 3.1
2014-Nov-24 10:33N 29°45' W 095°10'4 3.4
2014-Nov-24 09:27N 29°46' W 095°06'1 0.1
2014-Nov-23 23:15N 29°47' W 095°06'0 0.0
2014-Nov-23 22:30N 29°47' W 095°06'0 0.0
2014-Nov-23 21:30N 29°47' W 095°06'0 0.0
2014-Nov-23 20:30N 29°47' W 095°06'0 0.0
2014-Nov-23 19:30N 29°47' W 095°06'0 0.0
2014-Nov-23 18:27N 29°47' W 095°06'0 0.0
2014-Nov-23 17:33N 29°47' W 095°06'0 0.0
2014-Nov-23 16:27N 29°47' W 095°06'0 0.0
2014-Nov-23 15:12N 29°47' W 095°06'0 0.0
2014-Nov-23 14:33N 29°47' W 095°06'0 0.0
2014-Nov-23 13:33N 29°47' W 095°06'0 0.0
2014-Nov-23 07:12N 29°47' W 095°06'1 0.1
2014-Nov-22 22:33N 29°46' W 095°06'1 0.1
2014-Nov-22 15:11N 29°46' W 095°05'0 0.0
2014-Nov-21 22:05N 29°46' W 095°05'0 0.0
2014-Nov-21 20:17N 29°46' W 095°05'0 0.0
2014-Nov-21 19:32N 29°46' W 095°05'0 0.0
2014-Nov-21 18:29N 29°46' W 095°05'0 0.0
2014-Nov-21 17:29N 29°46' W 095°05'0 0.0
2014-Nov-21 15:33N 29°46' W 095°05'0 0.0
2014-Nov-21 14:12N 29°46' W 095°05'0 0.0
2014-Nov-21 13:24N 29°46' W 095°05'2 2.3
2014-Nov-21 12:18N 29°44' W 095°03'4 5.4
2014-Nov-21 11:32N 29°42' W 094°59'6 6.3
2014-Nov-21 10:32N 29°36' W 094°57'6 6.3
2014-Nov-21 09:33N 29°31' W 094°53'  
2014-Nov-18 17:07N 29°27' W 094°51'3 5.6
2014-Nov-18 16:33N 29°30' W 094°52'6 5.8
2014-Nov-18 15:33N 29°35' W 094°56'6 6.1
2014-Nov-18 14:33N 29°40' W 094°59'6 6.0
2014-Nov-18 13:33N 29°44' W 095°04'3 0.6
2014-Nov-18 08:20N 29°47' W 095°06'0 0.0
2014-Nov-18 07:20N 29°47' W 095°06'0 0.1
2014-Nov-18 03:31N 29°46' W 095°06'1 0.6
2014-Nov-18 02:32N 29°46' W 095°05'0 0.3
2014-Nov-18 01:12N 29°46' W 095°05'8 4.8
2014-Nov-17 23:28N 29°43' W 095°15'0 0.0
2014-Nov-17 22:16N 29°43' W 095°15'0 0.0
2014-Nov-17 17:22N 29°43' W 095°15'0 0.0
2014-Nov-17 16:34N 29°43' W 095°15'0 0.0
2014-Nov-17 15:28N 29°43' W 095°15'0 0.0
2014-Nov-17 14:16N 29°43' W 095°15'2 0.4
2014-Nov-17 10:29N 29°44' W 095°13'4 4.5
2014-Nov-17 09:33N 29°44' W 095°08'3 2.6
2014-Nov-17 08:28N 29°46' W 095°06'0 0.0
2014-Nov-16 22:05N 29°47' W 095°06'0 0.0
2014-Nov-16 20:17N 29°47' W 095°06'0 0.0
2014-Nov-16 19:23N 29°47' W 095°06'0 0.0
2014-Nov-16 18:29N 29°47' W 095°06'0 0.0
2014-Nov-16 17:32N 29°47' W 095°06'0 0.0
2014-Nov-16 16:30N 29°47' W 095°06'0 0.0
2014-Nov-16 15:24N 29°47' W 095°06'0 0.0
2014-Nov-16 14:30N 29°47' W 095°06'0 0.0
2014-Nov-16 13:33N 29°47' W 095°06'0 0.0
2014-Nov-15 22:11N 29°47' W 095°06'0 0.0
2014-Nov-15 21:32N 29°47' W 095°06'0 0.0
2014-Nov-15 20:26N 29°47' W 095°06'0 0.0
2014-Nov-15 19:33N 29°47' W 095°06'4 4.5
2014-Nov-15 18:33N 29°44' W 095°02'6 5.7
2014-Nov-15 17:34N 29°39' W 094°58'6 6.1
2014-Nov-15 16:33N 29°34' W 094°55'  
Track history (hours):
 
Tides and Currents Weather Stations Pressure Air Temp Water Temp Dewpoint Dewpoint Depression Visibility Wind Speed Wind Dir Waves Ship Positions

M/V Crosby Hustler

Owner: CROSBY INLAND MARINE LLC, GOLDEN MEADOW, LA. More information available from US FCC via Universal Licensing System and Coast Guard Vessel Documentation Center.

Last reported at 2014-Nov-25 16:21 UTC. Time now 2014-Nov-25 20:50 UTC.
Position N 29°43' W 095°14'.

Length 18 m; draft 9 m.

Type: Tug. MMSI: 366804030.

Date/timePositionNaut miles runAvg speedWind from/ knotsBaromVisibWave heightAir tempDewpointWater temp
2014-Nov-25 16:21N 29°43' W 095°14'2 3.1
2014-Nov-25 15:33N 29°45' W 095°12'1 1.0
2014-Nov-25 14:33N 29°45' W 095°11'5 4.5
2014-Nov-25 13:33N 29°45' W 095°06'0 0.1
2014-Nov-25 08:26N 29°45' W 095°06'7 1.8
2014-Nov-25 04:17N 29°44' W 095°14'3 4.4
2014-Nov-25 03:33N 29°45' W 095°10'4 4.4
2014-Nov-25 02:33N 29°46' W 095°05'0 0.2
2014-Nov-25 01:26N 29°46' W 095°06'8 2.7
2014-Nov-24 22:20N 29°43' W 095°15'0 0.0
2014-Nov-24 15:26N 29°43' W 095°15'0 0.0
2014-Nov-24 14:23N 29°43' W 095°15'2 0.8
2014-Nov-24 11:07N 29°44' W 095°12'2 3.1
2014-Nov-24 10:33N 29°45' W 095°10'4 3.4
2014-Nov-24 09:27N 29°46' W 095°06'1 0.1
2014-Nov-23 23:15N 29°47' W 095°06'0 0.0
2014-Nov-23 22:30N 29°47' W 095°06'0 0.0
2014-Nov-23 21:30N 29°47' W 095°06'0 0.0
2014-Nov-23 20:30N 29°47' W 095°06'0 0.0
2014-Nov-23 19:30N 29°47' W 095°06'0 0.0
2014-Nov-23 18:27N 29°47' W 095°06'0 0.0
2014-Nov-23 17:33N 29°47' W 095°06'0 0.0
2014-Nov-23 16:27N 29°47' W 095°06'0 0.0
2014-Nov-23 15:12N 29°47' W 095°06'0 0.0
2014-Nov-23 14:33N 29°47' W 095°06'0 0.0
2014-Nov-23 13:33N 29°47' W 095°06'0 0.0
2014-Nov-23 07:12N 29°47' W 095°06'1 0.1
2014-Nov-22 22:33N 29°46' W 095°06'1 0.1
2014-Nov-22 15:11N 29°46' W 095°05'0 0.0
2014-Nov-21 22:05N 29°46' W 095°05'0 0.0
2014-Nov-21 20:17N 29°46' W 095°05'0 0.0
2014-Nov-21 19:32N 29°46' W 095°05'0 0.0
2014-Nov-21 18:29N 29°46' W 095°05'0 0.0
2014-Nov-21 17:29N 29°46' W 095°05'0 0.0
2014-Nov-21 15:33N 29°46' W 095°05'0 0.0
2014-Nov-21 14:12N 29°46' W 095°05'0 0.0
2014-Nov-21 13:24N 29°46' W 095°05'2 2.3
2014-Nov-21 12:18N 29°44' W 095°03'4 5.4
2014-Nov-21 11:32N 29°42' W 094°59'6 6.3
2014-Nov-21 10:32N 29°36' W 094°57'6 6.3
2014-Nov-21 09:33N 29°31' W 094°53'  
2014-Nov-18 17:07N 29°27' W 094°51'3 5.6
2014-Nov-18 16:33N 29°30' W 094°52'6 5.8
2014-Nov-18 15:33N 29°35' W 094°56'6 6.1
2014-Nov-18 14:33N 29°40' W 094°59'6 6.0
2014-Nov-18 13:33N 29°44' W 095°04'3 0.6
2014-Nov-18 08:20N 29°47' W 095°06'0 0.0
2014-Nov-18 07:20N 29°47' W 095°06'0 0.1
2014-Nov-18 03:31N 29°46' W 095°06'1 0.6
2014-Nov-18 02:32N 29°46' W 095°05'0 0.3
2014-Nov-18 01:12N 29°46' W 095°05'8 4.8
2014-Nov-17 23:28N 29°43' W 095°15'0 0.0
2014-Nov-17 22:16N 29°43' W 095°15'0 0.0
2014-Nov-17 17:22N 29°43' W 095°15'0 0.0
2014-Nov-17 16:34N 29°43' W 095°15'0 0.0
2014-Nov-17 15:28N 29°43' W 095°15'0 0.0
2014-Nov-17 14:16N 29°43' W 095°15'2 0.4
2014-Nov-17 10:29N 29°44' W 095°13'4 4.5
2014-Nov-17 09:33N 29°44' W 095°08'3 2.6
2014-Nov-17 08:28N 29°46' W 095°06'0 0.0
2014-Nov-16 22:05N 29°47' W 095°06'0 0.0
2014-Nov-16 20:17N 29°47' W 095°06'0 0.0
2014-Nov-16 19:23N 29°47' W 095°06'0 0.0
2014-Nov-16 18:29N 29°47' W 095°06'0 0.0
2014-Nov-16 17:32N 29°47' W 095°06'0 0.0
2014-Nov-16 16:30N 29°47' W 095°06'0 0.0
2014-Nov-16 15:24N 29°47' W 095°06'0 0.0
2014-Nov-16 14:30N 29°47' W 095°06'0 0.0
2014-Nov-16 13:33N 29°47' W 095°06'0 0.0
2014-Nov-15 22:11N 29°47' W 095°06'0 0.0
2014-Nov-15 21:32N 29°47' W 095°06'0 0.0
2014-Nov-15 20:26N 29°47' W 095°06'0 0.0
2014-Nov-15 19:33N 29°47' W 095°06'4 4.5
2014-Nov-15 18:33N 29°44' W 095°02'6 5.7
2014-Nov-15 17:34N 29°39' W 094°58'6 6.1
2014-Nov-15 16:33N 29°34' W 094°55'  

Dump ship's entire track history